Airfield :







YOU CAN JOIN US ON...

 
LOGIN :

Register | Disclaimer

   EN    FR    IT 

 









Legend :    VFR   Marginal VFR   IFR   Intensive IFR   Very Intensive IFR
Visi :
Ceiling :
>= 8 km
>= 3000ft
5 to 8 km
1000 to 3000 ft
1500m to 5 km
500 to 1000 ft
800 to 1500m
200 to 500 ft
< 800m
< 200 ft
Symbols :   Thunderstorms  Fog  Heavy snow  Heavy precipitations  Wind > 20 kt






- Airport Elevation : 90 ft
- IATA code : YHU


CYHU - Montréal Saint-Hubert

CURRENT METAR :
  • 301500Z AUTO 32011G17KT 9SM FEW029 SCT033 BKN100 18/11 A2977 RMK SLP083 DENSITY ALT 700FT

EXPIRED METARs :
  • 301400Z AUTO 33011G17KT 300V360 9SM BKN029 BKN035 OVC091 18/13 A2976 RMK SLP078 DENSITY ALT 600FT
  • 301300Z AUTO 31010G17KT 300V360 9SM BKN027 OVC096 18/13 A2975 RMK SLP076 DENSITY ALT 700FT

TAF TAF CYHU
Valid from the 30 at 12:00 until the 31 at 12:00 UTC


301141Z 3012/3112 33008G18KT P6SM BKN050 OVC080
TEMPO 3012/3015 P6SM -SHRA BKN020 OVC080
BECMG 3016/3018 31012G22KT
FM302000 30012G22KT P6SM BKN050
FM310000 30010KT P6SM FEW050
BECMG 3104/3106 29005KT RMK FCST BASED ON AUTO OBS. NXT FCST BY 301800Z
CZUL FIR / North America



MET'MAP, your aeronautical weather chart ! - Copyright ORBIFLY December 2007 - Disclaimer

ORBIFLY MET'MAP TEAM :

Programming & Development : Alexandra Zaïnal
Concept & original design : Baudouin d'Aumeries
Assistance for programming : Marc-Olivier Méhu
Technical & hardware support : Manuel Goepfert

Contact : metmap@orbifly.com




SOURCES & CREDITS :

   NOAA